sensor_id;sensor_type;location;lat;lon;timestamp;pressure;altitude;pressure_sealevel;temperature;humidity
48846;BME280;34665;51.886;5.436;2023-03-15T00:00:43;101015.38;;;9.63;100.00
48846;BME280;34665;51.886;5.436;2023-03-15T00:03:09;101012.13;;;9.98;100.00
48846;BME280;34665;51.886;5.436;2023-03-15T00:05:35;101015.84;;;10.18;100.00
48846;BME280;34665;51.886;5.436;2023-03-15T00:08:00;101012.84;;;9.76;100.00
48846;BME280;34665;51.886;5.436;2023-03-15T00:10:26;101011.88;;;10.14;100.00
48846;BME280;34665;51.886;5.436;2023-03-15T00:12:52;101016.03;;;10.17;100.00
48846;BME280;34665;51.886;5.436;2023-03-15T00:15:18;101019.63;;;10.09;100.00
48846;BME280;34665;51.886;5.436;2023-03-15T00:17:43;101020.91;;;10.13;100.00
48846;BME280;34665;51.886;5.436;2023-03-15T00:20:09;101014.44;;;9.71;100.00
48846;BME280;34665;51.886;5.436;2023-03-15T00:22:35;101016.56;;;9.60;100.00
48846;BME280;34665;51.886;5.436;2023-03-15T00:25:00;101017.28;;;9.69;100.00
48846;BME280;34665;51.886;5.436;2023-03-15T00:27:26;101016.19;;;9.94;100.00
48846;BME280;34665;51.886;5.436;2023-03-15T00:29:51;101022.34;;;10.31;100.00
48846;BME280;34665;51.886;5.436;2023-03-15T00:32:17;101019.22;;;9.60;100.00
48846;BME280;34665;51.886;5.436;2023-03-15T00:34:42;101024.00;;;9.80;100.00
48846;BME280;34665;51.886;5.436;2023-03-15T00:37:14;101022.59;;;10.36;100.00
48846;BME280;34665;51.886;5.436;2023-03-15T00:39:41;101014.91;;;10.11;100.00
48846;BME280;34665;51.886;5.436;2023-03-15T00:42:09;101010.50;;;10.18;100.00
48846;BME280;34665;51.886;5.436;2023-03-15T00:44:35;101008.66;;;9.52;100.00
48846;BME280;34665;51.886;5.436;2023-03-15T00:47:01;101019.38;;;9.14;100.00
48846;BME280;34665;51.886;5.436;2023-03-15T00:49:26;101028.75;;;9.10;100.00
48846;BME280;34665;51.886;5.436;2023-03-15T00:51:53;101027.34;;;9.52;100.00
48846;BME280;34665;51.886;5.436;2023-03-15T00:54:19;101025.66;;;9.81;100.00
48846;BME280;34665;51.886;5.436;2023-03-15T00:56:48;101035.19;;;10.21;100.00
48846;BME280;34665;51.886;5.436;2023-03-15T00:59:13;101034.63;;;10.40;100.00
48846;BME280;34665;51.886;5.436;2023-03-15T01:01:39;101034.31;;;10.35;100.00
48846;BME280;34665;51.886;5.436;2023-03-15T01:04:08;101031.63;;;9.98;100.00
48846;BME280;34665;51.886;5.436;2023-03-15T01:06:35;101046.66;;;9.24;100.00
48846;BME280;34665;51.886;5.436;2023-03-15T01:09:00;101046.81;;;9.23;100.00
48846;BME280;34665;51.886;5.436;2023-03-15T01:11:26;101042.88;;;9.64;100.00
48846;BME280;34665;51.886;5.436;2023-03-15T01:13:53;101050.59;;;9.28;100.00
48846;BME280;34665;51.886;5.436;2023-03-15T01:16:18;101057.22;;;9.32;100.00
48846;BME280;34665;51.886;5.436;2023-03-15T01:18:45;101049.34;;;9.69;100.00
48846;BME280;34665;51.886;5.436;2023-03-15T01:21:11;101066.00;;;9.56;100.00
48846;BME280;34665;51.886;5.436;2023-03-15T01:23:36;101066.16;;;9.25;100.00
48846;BME280;34665;51.886;5.436;2023-03-15T01:26:02;101058.19;;;9.70;100.00
48846;BME280;34665;51.886;5.436;2023-03-15T01:28:28;101059.81;;;10.16;100.00
48846;BME280;34665;51.886;5.436;2023-03-15T01:30:55;101068.00;;;9.99;100.00
48846;BME280;34665;51.886;5.436;2023-03-15T01:33:21;101065.34;;;9.84;100.00
48846;BME280;34665;51.886;5.436;2023-03-15T01:35:47;101073.72;;;10.11;100.00
48846;BME280;34665;51.886;5.436;2023-03-15T01:38:13;101072.63;;;9.60;100.00
48846;BME280;34665;51.886;5.436;2023-03-15T01:40:42;101077.72;;;9.70;100.00
48846;BME280;34665;51.886;5.436;2023-03-15T01:43:19;101081.88;;;9.73;100.00
48846;BME280;34665;51.886;5.436;2023-03-15T01:45:53;101091.00;;;9.25;100.00
48846;BME280;34665;51.886;5.436;2023-03-15T01:48:23;101092.56;;;9.35;100.00
48846;BME280;34665;51.886;5.436;2023-03-15T01:50:50;101095.22;;;9.20;100.00
48846;BME280;34665;51.886;5.436;2023-03-15T01:53:19;101086.88;;;9.53;100.00
48846;BME280;34665;51.886;5.436;2023-03-15T01:55:45;101090.25;;;9.85;100.00
48846;BME280;34665;51.886;5.436;2023-03-15T01:58:13;101092.53;;;9.88;100.00
48846;BME280;34665;51.886;5.436;2023-03-15T02:00:41;101093.09;;;9.68;100.00
48846;BME280;34665;51.886;5.436;2023-03-15T02:03:16;101090.69;;;9.58;100.00
48846;BME280;34665;51.886;5.436;2023-03-15T02:05:47;101097.63;;;9.83;100.00
48846;BME280;34665;51.886;5.436;2023-03-15T02:08:21;101096.13;;;10.40;100.00
48846;BME280;34665;51.886;5.436;2023-03-15T02:10:50;101104.19;;;9.42;100.00
48846;BME280;34665;51.886;5.436;2023-03-15T02:13:19;101107.66;;;9.81;100.00
48846;BME280;34665;51.886;5.436;2023-03-15T02:15:47;101103.28;;;9.50;100.00
48846;BME280;34665;51.886;5.436;2023-03-15T02:18:20;101105.16;;;9.94;100.00
48846;BME280;34665;51.886;5.436;2023-03-15T02:23:25;101112.91;;;9.89;100.00
48846;BME280;34665;51.886;5.436;2023-03-15T02:28:36;101108.09;;;10.29;100.00
48846;BME280;34665;51.886;5.436;2023-03-15T02:31:02;101125.50;;;9.80;100.00
48846;BME280;34665;51.886;5.436;2023-03-15T02:36:06;101116.75;;;9.86;100.00
48846;BME280;34665;51.886;5.436;2023-03-15T02:38:31;101117.41;;;10.18;100.00
48846;BME280;34665;51.886;5.436;2023-03-15T02:40:57;101122.94;;;10.17;100.00
48846;BME280;34665;51.886;5.436;2023-03-15T02:43:23;101130.13;;;9.86;100.00
48846;BME280;34665;51.886;5.436;2023-03-15T02:45:51;101138.69;;;9.82;100.00
48846;BME280;34665;51.886;5.436;2023-03-15T02:48:17;101142.28;;;9.74;100.00
48846;BME280;34665;51.886;5.436;2023-03-15T02:50:43;101150.97;;;9.53;100.00
48846;BME280;34665;51.886;5.436;2023-03-15T02:53:08;101149.50;;;9.50;100.00
48846;BME280;34665;51.886;5.436;2023-03-15T02:55:34;101146.81;;;10.03;100.00
48846;BME280;34665;51.886;5.436;2023-03-15T02:58:00;101161.63;;;10.06;100.00
48846;BME280;34665;51.886;5.436;2023-03-15T03:00:26;101155.59;;;9.59;100.00
48846;BME280;34665;51.886;5.436;2023-03-15T03:02:52;101162.81;;;9.35;100.00
48846;BME280;34665;51.886;5.436;2023-03-15T03:05:18;101168.91;;;9.82;100.00
48846;BME280;34665;51.886;5.436;2023-03-15T03:07:43;101177.00;;;9.74;100.00
48846;BME280;34665;51.886;5.436;2023-03-15T03:10:12;101178.00;;;9.35;100.00
48846;BME280;34665;51.886;5.436;2023-03-15T03:12:46;101177.59;;;9.46;100.00
48846;BME280;34665;51.886;5.436;2023-03-15T03:15:18;101183.72;;;9.70;100.00
48846;BME280;34665;51.886;5.436;2023-03-15T03:17:45;101183.72;;;9.46;100.00
48846;BME280;34665;51.886;5.436;2023-03-15T03:20:11;101186.00;;;9.35;100.00
48846;BME280;34665;51.886;5.436;2023-03-15T03:22:42;101187.75;;;9.66;100.00
48846;BME280;34665;51.886;5.436;2023-03-15T03:25:09;101186.19;;;9.10;100.00
48846;BME280;34665;51.886;5.436;2023-03-15T03:27:37;101196.59;;;9.43;100.00
48846;BME280;34665;51.886;5.436;2023-03-15T03:30:05;101196.69;;;9.35;100.00
48846;BME280;34665;51.886;5.436;2023-03-15T03:32:32;101207.06;;;9.29;100.00
48846;BME280;34665;51.886;5.436;2023-03-15T03:34:58;101209.38;;;9.32;100.00
48846;BME280;34665;51.886;5.436;2023-03-15T03:37:23;101212.38;;;9.53;100.00
48846;BME280;34665;51.886;5.436;2023-03-15T03:40:02;101215.38;;;9.35;100.00
48846;BME280;34665;51.886;5.436;2023-03-15T03:42:31;101227.41;;;9.30;100.00
48846;BME280;34665;51.886;5.436;2023-03-15T03:44:57;101222.88;;;9.31;100.00
48846;BME280;34665;51.886;5.436;2023-03-15T03:47:29;101222.16;;;9.14;100.00
48846;BME280;34665;51.886;5.436;2023-03-15T03:49:54;101232.63;;;8.92;100.00
48846;BME280;34665;51.886;5.436;2023-03-15T03:52:20;101236.88;;;9.10;100.00
48846;BME280;34665;51.886;5.436;2023-03-15T03:54:48;101243.72;;;9.36;100.00
48846;BME280;34665;51.886;5.436;2023-03-15T03:57:15;101239.84;;;9.61;100.00
48846;BME280;34665;51.886;5.436;2023-03-15T03:59:41;101241.75;;;9.29;100.00
48846;BME280;34665;51.886;5.436;2023-03-15T04:02:07;101238.91;;;9.54;100.00
48846;BME280;34665;51.886;5.436;2023-03-15T04:04:34;101247.00;;;9.46;100.00
48846;BME280;34665;51.886;5.436;2023-03-15T04:07:00;101252.97;;;9.48;100.00
48846;BME280;34665;51.886;5.436;2023-03-15T04:09:32;101254.03;;;9.15;100.00
48846;BME280;34665;51.886;5.436;2023-03-15T04:12:04;101255.81;;;9.23;100.00
48846;BME280;34665;51.886;5.436;2023-03-15T04:14:31;101260.38;;;9.38;100.00
48846;BME280;34665;51.886;5.436;2023-03-15T04:16:56;101266.38;;;9.40;100.00
48846;BME280;34665;51.886;5.436;2023-03-15T04:19:22;101275.31;;;9.24;100.00
48846;BME280;34665;51.886;5.436;2023-03-15T04:21:49;101263.41;;;9.35;100.00
48846;BME280;34665;51.886;5.436;2023-03-15T04:24:28;101264.41;;;9.33;100.00
48846;BME280;34665;51.886;5.436;2023-03-15T04:27:17;101270.56;;;9.34;100.00
48846;BME280;34665;51.886;5.436;2023-03-15T04:30:06;101273.56;;;9.39;100.00
48846;BME280;34665;51.886;5.436;2023-03-15T04:32:48;101285.06;;;9.40;100.00
48846;BME280;34665;51.886;5.436;2023-03-15T04:35:18;101287.69;;;9.48;100.00
48846;BME280;34665;51.886;5.436;2023-03-15T04:37:58;101296.16;;;9.20;100.00
48846;BME280;34665;51.886;5.436;2023-03-15T04:40:43;101292.94;;;9.33;100.00
48846;BME280;34665;51.886;5.436;2023-03-15T04:43:22;101295.88;;;9.46;100.00
48846;BME280;34665;51.886;5.436;2023-03-15T04:46:18;101297.53;;;9.16;100.00
48846;BME280;34665;51.886;5.436;2023-03-15T04:49:07;101303.94;;;9.38;100.00
48846;BME280;34665;51.886;5.436;2023-03-15T04:51:48;101312.19;;;9.20;100.00
48846;BME280;34665;51.886;5.436;2023-03-15T04:54:25;101308.84;;;9.26;100.00
48846;BME280;34665;51.886;5.436;2023-03-15T04:56:54;101312.59;;;9.09;100.00
48846;BME280;34665;51.886;5.436;2023-03-15T04:59:30;101318.63;;;9.34;100.00
48846;BME280;34665;51.886;5.436;2023-03-15T05:02:21;101316.84;;;9.26;100.00
48846;BME280;34665;51.886;5.436;2023-03-15T05:05:13;101326.50;;;9.27;100.00
48846;BME280;34665;51.886;5.436;2023-03-15T05:07:59;101322.31;;;9.01;100.00
48846;BME280;34665;51.886;5.436;2023-03-15T05:10:54;101329.19;;;9.19;100.00
48846;BME280;34665;51.886;5.436;2023-03-15T05:13:43;101333.09;;;9.40;100.00
48846;BME280;34665;51.886;5.436;2023-03-15T05:16:36;101337.13;;;9.36;100.00
48846;BME280;34665;51.886;5.436;2023-03-15T05:19:31;101338.28;;;9.41;100.00
48846;BME280;34665;51.886;5.436;2023-03-15T05:22:19;101348.31;;;9.39;100.00
48846;BME280;34665;51.886;5.436;2023-03-15T05:25:10;101339.78;;;9.04;100.00
48846;BME280;34665;51.886;5.436;2023-03-15T05:27:50;101335.88;;;9.23;100.00
48846;BME280;34665;51.886;5.436;2023-03-15T05:30:31;101345.50;;;9.32;100.00
48846;BME280;34665;51.886;5.436;2023-03-15T05:33:17;101352.66;;;9.32;100.00
48846;BME280;34665;51.886;5.436;2023-03-15T05:35:58;101347.22;;;9.25;100.00
48846;BME280;34665;51.886;5.436;2023-03-15T05:38:37;101357.69;;;9.27;100.00
48846;BME280;34665;51.886;5.436;2023-03-15T05:41:22;101362.72;;;9.22;100.00
48846;BME280;34665;51.886;5.436;2023-03-15T05:44:17;101372.69;;;8.88;100.00
48846;BME280;34665;51.886;5.436;2023-03-15T05:47:15;101374.97;;;9.08;100.00
48846;BME280;34665;51.886;5.436;2023-03-15T05:50:16;101380.25;;;9.16;100.00
48846;BME280;34665;51.886;5.436;2023-03-15T05:52:55;101380.03;;;8.86;100.00
48846;BME280;34665;51.886;5.436;2023-03-15T05:55:33;101385.88;;;9.29;100.00
48846;BME280;34665;51.886;5.436;2023-03-15T05:58:23;101386.34;;;9.41;100.00
48846;BME280;34665;51.886;5.436;2023-03-15T06:00:51;101396.22;;;9.32;100.00
48846;BME280;34665;51.886;5.436;2023-03-15T06:03:34;101403.72;;;9.37;100.00
48846;BME280;34665;51.886;5.436;2023-03-15T06:06:09;101409.88;;;9.38;100.00
48846;BME280;34665;51.886;5.436;2023-03-15T06:08:38;101405.38;;;9.30;100.00
48846;BME280;34665;51.886;5.436;2023-03-15T06:11:04;101413.03;;;9.41;100.00
48846;BME280;34665;51.886;5.436;2023-03-15T06:13:30;101424.16;;;9.53;100.00
48846;BME280;34665;51.886;5.436;2023-03-15T06:15:56;101415.31;;;9.53;100.00
48846;BME280;34665;51.886;5.436;2023-03-15T06:18:22;101424.63;;;9.25;100.00
48846;BME280;34665;51.886;5.436;2023-03-15T06:20:49;101421.19;;;9.48;100.00
48846;BME280;34665;51.886;5.436;2023-03-15T06:23:16;101426.44;;;9.65;100.00
48846;BME280;34665;51.886;5.436;2023-03-15T06:25:44;101431.59;;;9.66;100.00
48846;BME280;34665;51.886;5.436;2023-03-15T06:28:10;101446.84;;;9.57;100.00
48846;BME280;34665;51.886;5.436;2023-03-15T06:30:39;101456.56;;;9.42;100.00
48846;BME280;34665;51.886;5.436;2023-03-15T06:33:06;101455.91;;;9.40;100.00
48846;BME280;34665;51.886;5.436;2023-03-15T06:35:32;101459.22;;;9.42;100.00
48846;BME280;34665;51.886;5.436;2023-03-15T06:37:57;101472.63;;;9.73;100.00
48846;BME280;34665;51.886;5.436;2023-03-15T06:40:22;101478.81;;;9.74;100.00
48846;BME280;34665;51.886;5.436;2023-03-15T06:42:48;101481.84;;;9.63;100.00
48846;BME280;34665;51.886;5.436;2023-03-15T06:45:16;101481.97;;;9.29;100.00
48846;BME280;34665;51.886;5.436;2023-03-15T06:47:42;101477.75;;;9.43;100.00
48846;BME280;34665;51.886;5.436;2023-03-15T06:50:09;101488.84;;;9.64;100.00
48846;BME280;34665;51.886;5.436;2023-03-15T06:52:34;101490.41;;;9.50;100.00
48846;BME280;34665;51.886;5.436;2023-03-15T06:54:59;101501.69;;;9.68;100.00
48846;BME280;34665;51.886;5.436;2023-03-15T06:57:26;101497.22;;;9.69;100.00
48846;BME280;34665;51.886;5.436;2023-03-15T06:59:52;101508.00;;;9.75;100.00
48846;BME280;34665;51.886;5.436;2023-03-15T07:02:18;101511.22;;;9.71;100.00
48846;BME280;34665;51.886;5.436;2023-03-15T07:04:43;101512.84;;;9.80;100.00
48846;BME280;34665;51.886;5.436;2023-03-15T07:07:12;101517.34;;;9.80;100.00
48846;BME280;34665;51.886;5.436;2023-03-15T07:09:37;101519.13;;;9.96;100.00
48846;BME280;34665;51.886;5.436;2023-03-15T07:12:03;101519.50;;;9.84;100.00
48846;BME280;34665;51.886;5.436;2023-03-15T07:14:28;101532.47;;;9.96;100.00
48846;BME280;34665;51.886;5.436;2023-03-15T07:16:54;101531.94;;;10.00;100.00
48846;BME280;34665;51.886;5.436;2023-03-15T07:19:19;101539.38;;;10.22;100.00
48846;BME280;34665;51.886;5.436;2023-03-15T07:21:45;101544.41;;;10.16;100.00
48846;BME280;34665;51.886;5.436;2023-03-15T07:24:10;101550.28;;;10.12;100.00
48846;BME280;34665;51.886;5.436;2023-03-15T07:26:36;101551.22;;;10.19;100.00
48846;BME280;34665;51.886;5.436;2023-03-15T07:29:01;101564.06;;;10.24;100.00
48846;BME280;34665;51.886;5.436;2023-03-15T07:31:26;101562.72;;;10.28;100.00
48846;BME280;34665;51.886;5.436;2023-03-15T07:33:52;101567.34;;;10.34;100.00
48846;BME280;34665;51.886;5.436;2023-03-15T07:36:17;101574.00;;;10.46;100.00
48846;BME280;34665;51.886;5.436;2023-03-15T07:38:43;101579.84;;;10.50;100.00
48846;BME280;34665;51.886;5.436;2023-03-15T07:41:08;101574.13;;;10.53;100.00
48846;BME280;34665;51.886;5.436;2023-03-15T07:43:37;101578.59;;;10.61;100.00
48846;BME280;34665;51.886;5.436;2023-03-15T07:46:12;101570.88;;;10.66;100.00
48846;BME280;34665;51.886;5.436;2023-03-15T07:48:37;101579.28;;;10.55;100.00
48846;BME280;34665;51.886;5.436;2023-03-15T07:51:03;101583.25;;;10.67;100.00
48846;BME280;34665;51.886;5.436;2023-03-15T07:53:29;101588.53;;;10.75;100.00
48846;BME280;34665;51.886;5.436;2023-03-15T07:55:54;101587.50;;;10.76;100.00
48846;BME280;34665;51.886;5.436;2023-03-15T07:58:19;101592.09;;;10.91;100.00
48846;BME280;34665;51.886;5.436;2023-03-15T08:00:44;101590.66;;;11.03;100.00
48846;BME280;34665;51.886;5.436;2023-03-15T08:03:10;101587.31;;;11.01;100.00
48846;BME280;34665;51.886;5.436;2023-03-15T08:05:35;101603.34;;;11.10;100.00
48846;BME280;34665;51.886;5.436;2023-03-15T08:08:01;101606.41;;;10.98;100.00
48846;BME280;34665;51.886;5.436;2023-03-15T08:10:27;101612.72;;;11.05;100.00
48846;BME280;34665;51.886;5.436;2023-03-15T08:12:52;101615.25;;;11.22;100.00
48846;BME280;34665;51.886;5.436;2023-03-15T08:15:18;101626.44;;;11.26;100.00
48846;BME280;34665;51.886;5.436;2023-03-15T08:17:45;101631.84;;;11.41;100.00
48846;BME280;34665;51.886;5.436;2023-03-15T08:20:11;101636.75;;;11.52;100.00
48846;BME280;34665;51.886;5.436;2023-03-15T08:22:39;101640.09;;;11.54;100.00
48846;BME280;34665;51.886;5.436;2023-03-15T08:25:09;101632.91;;;11.70;100.00
48846;BME280;34665;51.886;5.436;2023-03-15T08:27:35;101638.19;;;11.78;100.00
48846;BME280;34665;51.886;5.436;2023-03-15T08:30:02;101642.97;;;11.83;100.00
48846;BME280;34665;51.886;5.436;2023-03-15T08:32:27;101645.00;;;11.96;100.00
48846;BME280;34665;51.886;5.436;2023-03-15T08:34:52;101643.31;;;12.03;100.00
48846;BME280;34665;51.886;5.436;2023-03-15T08:37:18;101648.38;;;12.13;100.00
48846;BME280;34665;51.886;5.436;2023-03-15T08:39:44;101648.75;;;12.25;100.00
48846;BME280;34665;51.886;5.436;2023-03-15T08:42:09;101661.38;;;12.46;100.00
48846;BME280;34665;51.886;5.436;2023-03-15T08:44:36;101662.78;;;12.42;100.00
48846;BME280;34665;51.886;5.436;2023-03-15T08:47:02;101658.22;;;12.57;100.00
48846;BME280;34665;51.886;5.436;2023-03-15T08:49:27;101669.03;;;12.86;100.00
48846;BME280;34665;51.886;5.436;2023-03-15T08:51:53;101663.81;;;13.21;100.00
48846;BME280;34665;51.886;5.436;2023-03-15T08:54:19;101671.59;;;13.38;100.00
48846;BME280;34665;51.886;5.436;2023-03-15T08:56:46;101670.88;;;14.08;97.47
48846;BME280;34665;51.886;5.436;2023-03-15T08:59:11;101677.56;;;14.18;92.78
48846;BME280;34665;51.886;5.436;2023-03-15T09:01:37;101683.44;;;14.36;90.36
48846;BME280;34665;51.886;5.436;2023-03-15T09:04:04;101691.19;;;15.34;81.69
48846;BME280;34665;51.886;5.436;2023-03-15T09:06:30;101693.84;;;16.02;73.59
48846;BME280;34665;51.886;5.436;2023-03-15T09:08:55;101697.53;;;16.21;70.01
48846;BME280;34665;51.886;5.436;2023-03-15T09:11:21;101697.94;;;16.77;68.13
48846;BME280;34665;51.886;5.436;2023-03-15T09:13:46;101707.22;;;17.52;65.83
48846;BME280;34665;51.886;5.436;2023-03-15T09:16:12;101706.16;;;18.04;63.48
48846;BME280;34665;51.886;5.436;2023-03-15T09:18:37;101707.09;;;18.66;59.70
48846;BME280;34665;51.886;5.436;2023-03-15T09:21:04;101705.78;;;19.29;58.39
48846;BME280;34665;51.886;5.436;2023-03-15T09:23:29;101696.47;;;19.25;60.29
48846;BME280;34665;51.886;5.436;2023-03-15T09:25:55;101705.34;;;19.56;58.49
48846;BME280;34665;51.886;5.436;2023-03-15T09:28:20;101697.34;;;20.09;57.13
48846;BME280;34665;51.886;5.436;2023-03-15T09:30:46;101697.56;;;20.60;52.41
48846;BME280;34665;51.886;5.436;2023-03-15T09:33:11;101701.50;;;20.41;54.95
48846;BME280;34665;51.886;5.436;2023-03-15T09:35:39;101706.69;;;21.12;49.43
48846;BME280;34665;51.886;5.436;2023-03-15T09:38:05;101718.47;;;21.18;50.49
48846;BME280;34665;51.886;5.436;2023-03-15T09:40:31;101714.34;;;22.45;46.63
48846;BME280;34665;51.886;5.436;2023-03-15T09:48:49;101724.00;;;21.91;49.56
48846;BME280;34665;51.886;5.436;2023-03-15T09:52:02;101725.91;;;22.13;47.94
48846;BME280;34665;51.886;5.436;2023-03-15T09:54:23;101719.94;;;21.94;47.07
48846;BME280;34665;51.886;5.436;2023-03-15T09:56:49;101724.16;;;23.24;44.39
48846;BME280;34665;51.886;5.436;2023-03-15T09:59:17;101723.66;;;23.27;45.36
48846;BME280;34665;51.886;5.436;2023-03-15T10:01:47;101729.09;;;23.59;44.24
48846;BME280;34665;51.886;5.436;2023-03-15T10:04:26;101721.16;;;23.58;44.01
48846;BME280;34665;51.886;5.436;2023-03-15T10:06:54;101726.72;;;23.68;43.78
48846;BME280;34665;51.886;5.436;2023-03-15T10:09:24;101729.72;;;23.72;43.54
48846;BME280;34665;51.886;5.436;2023-03-15T10:12:01;101722.84;;;23.64;43.83
48846;BME280;34665;51.886;5.436;2023-03-15T10:17:14;101726.88;;;24.47;40.63
48846;BME280;34665;51.886;5.436;2023-03-15T10:29:54;101734.75;;;23.90;40.33
48846;BME280;34665;51.886;5.436;2023-03-15T10:32:21;101730.94;;;23.48;42.60
48846;BME280;34665;51.886;5.436;2023-03-15T10:34:50;101743.41;;;24.15;37.13
48846;BME280;34665;51.886;5.436;2023-03-15T10:37:16;101729.31;;;23.96;38.58
48846;BME280;34665;51.886;5.436;2023-03-15T10:39:43;101735.69;;;24.06;38.09
48846;BME280;34665;51.886;5.436;2023-03-15T10:42:32;101746.06;;;23.67;39.64
48846;BME280;34665;51.886;5.436;2023-03-15T10:44:57;101749.34;;;24.06;37.25
48846;BME280;34665;51.886;5.436;2023-03-15T10:47:23;101753.50;;;24.19;35.42
48846;BME280;34665;51.886;5.436;2023-03-15T10:49:54;101757.44;;;24.44;35.14
48846;BME280;34665;51.886;5.436;2023-03-15T10:52:25;101753.16;;;23.62;34.54
48846;BME280;34665;51.886;5.436;2023-03-15T10:54:51;101762.25;;;24.22;34.55
48846;BME280;34665;51.886;5.436;2023-03-15T10:57:16;101757.19;;;23.98;34.35
48846;BME280;34665;51.886;5.436;2023-03-15T11:02:50;101775.94;;;26.15;31.28
48846;BME280;34665;51.886;5.436;2023-03-15T11:05:17;101772.03;;;27.02;29.76
48846;BME280;34665;51.886;5.436;2023-03-15T11:07:52;101779.81;;;27.89;29.00
48846;BME280;34665;51.886;5.436;2023-03-15T11:10:22;101786.09;;;26.04;28.34
48846;BME280;34665;51.886;5.436;2023-03-15T11:12:49;101774.66;;;25.40;28.72
48846;BME280;34665;51.886;5.436;2023-03-15T11:15:15;101789.16;;;25.71;29.93
48846;BME280;34665;51.886;5.436;2023-03-15T11:17:44;101792.44;;;24.42;28.53
48846;BME280;34665;51.886;5.436;2023-03-15T11:22:41;101793.28;;;25.69;27.35
48846;BME280;34665;51.886;5.436;2023-03-15T11:25:12;101793.81;;;25.45;28.18
48846;BME280;34665;51.886;5.436;2023-03-15T11:27:38;101789.09;;;26.23;28.03
48846;BME280;34665;51.886;5.436;2023-03-15T11:30:04;101796.56;;;25.71;26.93
48846;BME280;34665;51.886;5.436;2023-03-15T11:32:30;101800.38;;;26.16;26.86
48846;BME280;34665;51.886;5.436;2023-03-15T11:35:01;101799.16;;;26.54;26.77
48846;BME280;34665;51.886;5.436;2023-03-15T11:40:43;101791.41;;;26.66;26.37
48846;BME280;34665;51.886;5.436;2023-03-15T11:42:45;101792.88;;;26.98;25.62
48846;BME280;34665;51.886;5.436;2023-03-15T11:45:21;101790.38;;;27.76;24.94
48846;BME280;34665;51.886;5.436;2023-03-15T11:47:50;101782.63;;;27.84;23.55
48846;BME280;34665;51.886;5.436;2023-03-15T11:50:17;101785.94;;;28.34;23.80
48846;BME280;34665;51.886;5.436;2023-03-15T11:52:46;101791.09;;;28.85;23.54
48846;BME280;34665;51.886;5.436;2023-03-15T11:55:27;101786.03;;;28.00;23.90
48846;BME280;34665;51.886;5.436;2023-03-15T11:57:53;101786.88;;;26.30;24.53
48846;BME280;34665;51.886;5.436;2023-03-15T12:03:21;101772.63;;;27.63;24.54
48846;BME280;34665;51.886;5.436;2023-03-15T12:08:57;101781.19;;;27.91;23.16
48846;BME280;34665;51.886;5.436;2023-03-15T12:11:02;101785.16;;;28.29;22.66
48846;BME280;34665;51.886;5.436;2023-03-15T12:13:34;101779.28;;;29.37;21.98
48846;BME280;34665;51.886;5.436;2023-03-15T12:16:00;101788.09;;;29.00;22.54
48846;BME280;34665;51.886;5.436;2023-03-15T12:18:27;101793.13;;;29.31;21.48
48846;BME280;34665;51.886;5.436;2023-03-15T12:24:06;101797.03;;;28.92;21.52
48846;BME280;34665;51.886;5.436;2023-03-15T12:26:44;101794.88;;;28.21;21.88
48846;BME280;34665;51.886;5.436;2023-03-15T12:29:21;101791.69;;;28.57;21.54
48846;BME280;34665;51.886;5.436;2023-03-15T12:34:41;101790.63;;;29.16;21.71
48846;BME280;34665;51.886;5.436;2023-03-15T12:37:11;101794.38;;;29.39;21.20
48846;BME280;34665;51.886;5.436;2023-03-15T12:39:39;101792.31;;;28.30;21.03
48846;BME280;34665;51.886;5.436;2023-03-15T12:42:05;101793.03;;;27.87;20.91
48846;BME280;34665;51.886;5.436;2023-03-15T12:46:57;101785.75;;;28.69;20.47
48846;BME280;34665;51.886;5.436;2023-03-15T12:51:56;101780.69;;;29.53;21.00
48846;BME280;34665;51.886;5.436;2023-03-15T12:54:22;101791.97;;;29.99;20.99
48846;BME280;34665;51.886;5.436;2023-03-15T12:57:01;101788.91;;;29.20;20.86
48846;BME280;34665;51.886;5.436;2023-03-15T12:59:31;101780.97;;;28.56;21.08
48846;BME280;34665;51.886;5.436;2023-03-15T13:01:59;101779.91;;;27.44;22.25
48846;BME280;34665;51.886;5.436;2023-03-15T13:04:26;101780.03;;;27.68;22.08
48846;BME280;34665;51.886;5.436;2023-03-15T13:14:40;101782.56;;;28.18;21.54
48846;BME280;34665;51.886;5.436;2023-03-15T13:19:45;101781.44;;;28.63;20.85
48846;BME280;34665;51.886;5.436;2023-03-15T13:22:28;101776.09;;;27.74;21.44
48846;BME280;34665;51.886;5.436;2023-03-15T13:25:08;101777.44;;;28.55;21.55
48846;BME280;34665;51.886;5.436;2023-03-15T13:32:47;101760.31;;;27.26;22.05
48846;BME280;34665;51.886;5.436;2023-03-15T13:35:12;101757.19;;;27.97;22.18
48846;BME280;34665;51.886;5.436;2023-03-15T13:37:38;101763.41;;;27.79;21.49
48846;BME280;34665;51.886;5.436;2023-03-15T13:40:11;101771.56;;;30.00;20.66
48846;BME280;34665;51.886;5.436;2023-03-15T13:42:40;101777.75;;;29.11;20.32
48846;BME280;34665;51.886;5.436;2023-03-15T13:45:13;101781.41;;;29.07;20.76
48846;BME280;34665;51.886;5.436;2023-03-15T13:47:39;101774.28;;;29.39;20.45
48846;BME280;34665;51.886;5.436;2023-03-15T13:50:07;101784.69;;;28.46;20.49
48846;BME280;34665;51.886;5.436;2023-03-15T13:52:33;101790.16;;;27.68;21.20
48846;BME280;34665;51.886;5.436;2023-03-15T13:54:59;101785.09;;;27.16;20.90
48846;BME280;34665;51.886;5.436;2023-03-15T13:57:25;101786.41;;;26.73;21.20
48846;BME280;34665;51.886;5.436;2023-03-15T13:59:53;101787.97;;;26.95;21.44
48846;BME280;34665;51.886;5.436;2023-03-15T14:02:22;101780.84;;;26.94;21.33
48846;BME280;34665;51.886;5.436;2023-03-15T14:05:00;101776.53;;;26.77;21.15
48846;BME280;34665;51.886;5.436;2023-03-15T14:07:34;101784.50;;;26.74;21.76